createdAt,value
2018-12-06T00:01:25.396Z,18.13
2018-12-06T00:03:53.140Z,17.10
2018-12-06T00:06:20.909Z,17.47
2018-12-06T00:08:48.662Z,17.40
2018-12-06T00:11:16.530Z,17.00
2018-12-06T00:13:44.305Z,16.93
2018-12-06T00:16:12.093Z,17.37
2018-12-06T00:18:40.274Z,16.43
2018-12-06T00:21:08.024Z,17.47
2018-12-06T00:23:35.826Z,17.83
2018-12-06T00:26:03.575Z,17.87
2018-12-06T00:28:31.295Z,17.37
2018-12-06T00:30:59.037Z,19.20
2018-12-06T00:33:26.840Z,18.60
2018-12-06T00:35:54.616Z,16.73
2018-12-06T00:38:23.298Z,17.47
2018-12-06T00:40:51.066Z,19.70
2018-12-06T00:43:18.851Z,17.90
2018-12-06T00:45:46.660Z,16.20
2018-12-06T00:48:14.402Z,18.10
2018-12-06T00:50:42.174Z,20.03
2018-12-06T00:53:09.920Z,19.73
2018-12-06T00:55:37.706Z,19.57
2018-12-06T00:58:05.585Z,18.97
2018-12-06T01:00:33.373Z,21.17
2018-12-06T01:03:01.148Z,20.10
2018-12-06T01:05:29.021Z,21.47
2018-12-06T01:07:56.737Z,20.30
2018-12-06T01:10:24.480Z,21.27
2018-12-06T01:12:52.260Z,20.47
2018-12-06T01:15:20.880Z,22.63
2018-12-06T01:17:48.640Z,22.37
2018-12-06T01:20:16.588Z,20.70
2018-12-06T01:22:44.353Z,20.47
2018-12-06T01:25:12.270Z,19.90
2018-12-06T01:27:40.046Z,20.93
2018-12-06T01:30:08.053Z,20.10
2018-12-06T01:32:35.850Z,19.33
2018-12-06T01:35:03.798Z,20.63
2018-12-06T01:37:31.634Z,21.30
2018-12-06T01:39:59.416Z,20.87
2018-12-06T01:42:27.176Z,20.63
2018-12-06T01:44:54.952Z,20.60
2018-12-06T01:47:22.713Z,20.33
2018-12-06T01:49:50.455Z,20.80
2018-12-06T01:52:18.260Z,21.30
2018-12-06T01:54:46.055Z,20.10
2018-12-06T01:57:13.853Z,21.63
2018-12-06T01:59:41.661Z,20.63
2018-12-06T02:02:09.449Z,20.80
2018-12-06T02:04:37.188Z,20.03
2018-12-06T02:07:04.954Z,20.43
2018-12-06T02:09:32.728Z,20.17
2018-12-06T02:12:00.518Z,18.17
2018-12-06T02:14:28.237Z,19.90
2018-12-06T02:16:55.994Z,18.17
2018-12-06T02:19:23.781Z,21.40
2018-12-06T02:21:51.531Z,21.80
2018-12-06T02:24:19.289Z,19.57
2018-12-06T02:26:47.038Z,21.63
2018-12-06T02:29:14.798Z,20.60
2018-12-06T02:31:42.589Z,21.53
2018-12-06T02:34:10.317Z,22.90
2018-12-06T02:36:38.108Z,21.93
2018-12-06T02:39:07.525Z,21.60
2018-12-06T02:41:35.343Z,21.33
2018-12-06T02:44:03.228Z,22.40
2018-12-06T02:46:30.998Z,22.30
2018-12-06T02:48:58.777Z,21.60
2018-12-06T02:51:27.161Z,22.67
2018-12-06T02:53:54.978Z,21.63
2018-12-06T02:56:22.715Z,22.07
2018-12-06T02:58:50.467Z,21.50
2018-12-06T03:01:18.262Z,23.43
2018-12-06T03:03:46.070Z,21.23
2018-12-06T03:06:13.856Z,23.27
2018-12-06T03:08:42.454Z,20.80
2018-12-06T03:11:10.228Z,22.53
2018-12-06T03:13:38.017Z,23.87
2018-12-06T03:16:05.812Z,22.03
2018-12-06T03:18:33.594Z,23.50
2018-12-06T03:21:01.357Z,23.07
2018-12-06T03:23:29.098Z,23.00
2018-12-06T03:25:56.833Z,25.40
2018-12-06T03:28:24.585Z,24.83
2018-12-06T03:30:52.350Z,24.60
2018-12-06T03:33:20.085Z,24.50
2018-12-06T03:35:47.843Z,24.23
2018-12-06T03:38:15.629Z,23.67
2018-12-06T03:40:43.391Z,23.37
2018-12-06T03:43:11.302Z,23.23
2018-12-06T03:45:39.087Z,21.83
2018-12-06T03:48:06.830Z,22.80
2018-12-06T03:50:34.631Z,22.63
2018-12-06T03:53:02.393Z,21.40
2018-12-06T03:55:30.151Z,22.03
2018-12-06T03:57:57.902Z,22.30
2018-12-06T04:00:25.636Z,21.57
2018-12-06T04:02:53.391Z,20.33
2018-12-06T04:05:21.211Z,20.83
2018-12-06T04:07:48.950Z,19.80
2018-12-06T04:10:16.693Z,19.27
2018-12-06T04:12:44.626Z,20.57
2018-12-06T04:15:12.505Z,19.90
2018-12-06T04:17:40.339Z,22.50
2018-12-06T04:20:08.116Z,19.87
2018-12-06T04:22:35.929Z,20.37
2018-12-06T04:25:03.865Z,21.57
2018-12-06T04:27:31.610Z,21.33
2018-12-06T04:29:59.471Z,20.93
2018-12-06T04:32:27.274Z,23.10
2018-12-06T04:34:55.062Z,20.57
2018-12-06T04:37:22.851Z,21.30
2018-12-06T04:39:50.635Z,20.67
2018-12-06T04:42:18.401Z,21.13
2018-12-06T04:44:46.256Z,21.73
2018-12-06T04:47:14.348Z,20.60
2018-12-06T04:49:42.290Z,20.67
2018-12-06T04:52:10.073Z,19.67
2018-12-06T04:54:37.810Z,20.17
2018-12-06T04:57:05.574Z,19.30
2018-12-06T04:59:33.335Z,19.50
2018-12-06T05:02:01.145Z,18.23
2018-12-06T05:04:28.937Z,21.20
2018-12-06T05:06:56.746Z,19.80
2018-12-06T05:09:24.489Z,19.33
2018-12-06T05:11:52.266Z,16.30
2018-12-06T05:14:21.279Z,19.43
2018-12-06T05:16:49.241Z,19.10
2018-12-06T05:19:17.049Z,17.50
2018-12-06T05:21:44.813Z,19.43
2018-12-06T05:24:12.617Z,17.50
2018-12-06T05:26:40.686Z,14.10
2018-12-06T05:29:08.467Z,19.40
2018-12-06T05:31:36.236Z,18.87
2018-12-06T05:34:04.142Z,16.87
2018-12-06T05:36:31.938Z,18.60
2018-12-06T05:38:59.717Z,15.43
2018-12-06T05:41:27.510Z,19.40
2018-12-06T05:43:55.267Z,17.47
2018-12-06T05:46:23.032Z,15.47
2018-12-06T05:48:50.887Z,19.57
2018-12-06T05:51:18.604Z,14.67
2018-12-06T05:53:46.409Z,19.67
2018-12-06T05:56:14.221Z,17.60
2018-12-06T05:58:42.845Z,17.60
2018-12-06T06:01:10.589Z,18.70
2018-12-06T06:03:38.359Z,16.83
2018-12-06T06:06:06.100Z,21.37
2018-12-06T06:08:33.875Z,17.10
2018-12-06T06:11:02.017Z,19.67
2018-12-06T06:13:29.773Z,18.07
2018-12-06T06:15:57.583Z,14.73
2018-12-06T06:18:25.370Z,17.37
2018-12-06T06:20:53.137Z,18.97
2018-12-06T06:23:20.947Z,20.57
2018-12-06T06:25:48.753Z,16.07
2018-12-06T06:28:17.873Z,20.63
2018-12-06T06:30:45.693Z,19.93
2018-12-06T06:33:13.426Z,20.30
2018-12-06T06:35:41.210Z,20.20
2018-12-06T06:38:09.005Z,14.60
2018-12-06T06:40:36.842Z,22.87
2018-12-06T06:43:04.607Z,17.23
2018-12-06T06:45:32.570Z,20.53
2018-12-06T06:48:00.380Z,19.93
2018-12-06T06:50:28.199Z,21.97
2018-12-06T06:52:56.002Z,19.90
2018-12-06T06:55:23.769Z,22.17
2018-12-06T06:57:51.472Z,22.77
2018-12-06T07:00:19.272Z,21.43
2018-12-06T07:02:48.057Z,18.37
2018-12-06T07:05:15.818Z,20.30
2018-12-06T07:07:43.613Z,22.70
2018-12-06T07:10:11.474Z,20.07
2018-12-06T07:12:39.339Z,19.73
2018-12-06T07:15:07.428Z,24.53
2018-12-06T07:17:35.157Z,17.80
2018-12-06T07:20:03.145Z,21.17
2018-12-06T07:22:30.896Z,22.03
2018-12-06T07:24:58.660Z,18.60
2018-12-06T07:27:26.452Z,21.30
2018-12-06T07:29:54.611Z,25.17
2018-12-06T07:32:22.357Z,21.87
2018-12-06T07:34:50.169Z,20.00
2018-12-06T07:37:17.961Z,21.57
2018-12-06T07:39:45.754Z,20.00
2018-12-06T07:42:13.565Z,17.10
2018-12-06T07:44:41.426Z,20.33
2018-12-06T07:47:09.381Z,21.50
2018-12-06T07:49:37.156Z,18.30
2018-12-06T07:52:04.967Z,22.83
2018-12-06T07:54:32.711Z,21.73
2018-12-06T07:57:00.437Z,17.10
2018-12-06T07:59:28.231Z,19.47
2018-12-06T08:01:56.158Z,20.60
2018-12-06T08:04:23.893Z,20.40
2018-12-06T08:06:51.728Z,21.67
2018-12-06T08:09:19.624Z,20.80
2018-12-06T08:11:47.610Z,20.40
2018-12-06T08:14:15.375Z,19.57
2018-12-06T08:16:43.113Z,18.80
2018-12-06T08:19:10.942Z,22.53
2018-12-06T08:21:38.750Z,20.07
2018-12-06T08:24:06.510Z,21.50
2018-12-06T08:26:34.322Z,20.77
2018-12-06T08:29:02.111Z,19.83
2018-12-06T08:31:29.926Z,21.03
2018-12-06T08:33:57.704Z,13.33
2018-12-06T08:36:25.461Z,21.20
2018-12-06T08:38:53.172Z,19.70
2018-12-06T08:41:20.989Z,18.03
2018-12-06T08:43:48.752Z,18.50
2018-12-06T08:46:16.562Z,22.00
2018-12-06T08:48:44.378Z,18.63
2018-12-06T08:51:12.138Z,20.43
2018-12-06T08:53:39.892Z,19.57
2018-12-06T08:56:07.692Z,19.40
2018-12-06T08:58:35.451Z,19.67
2018-12-06T09:01:03.300Z,16.00
2018-12-06T09:03:31.019Z,13.63
2018-12-06T09:05:58.948Z,19.13
2018-12-06T09:08:26.747Z,19.00
2018-12-06T09:10:54.496Z,18.87
2018-12-06T09:13:22.278Z,18.80
2018-12-06T09:15:50.035Z,20.67
2018-12-06T09:18:17.865Z,13.90
2018-12-06T09:20:45.582Z,17.10
2018-12-06T09:23:13.383Z,20.87
2018-12-06T09:25:41.165Z,19.40
2018-12-06T09:28:08.921Z,14.47
2018-12-06T09:30:36.677Z,17.63
2018-12-06T09:33:04.465Z,17.37
2018-12-06T09:35:32.388Z,18.10
2018-12-06T09:38:00.167Z,12.73
2018-12-06T09:40:28.065Z,16.53
2018-12-06T09:42:55.787Z,14.97
2018-12-06T09:45:23.621Z,14.90
2018-12-06T09:47:51.424Z,12.60
2018-12-06T09:50:19.289Z,15.80
2018-12-06T09:52:47.051Z,17.40
2018-12-06T09:55:15.113Z,15.57
2018-12-06T09:57:42.988Z,17.90
2018-12-06T10:00:13.525Z,11.03
2018-12-06T10:02:41.349Z,19.30
2018-12-06T10:05:09.454Z,19.13
2018-12-06T10:07:37.211Z,17.07
2018-12-06T10:10:05.585Z,13.67
2018-12-06T10:12:33.428Z,20.47
2018-12-06T10:15:01.186Z,13.70
2018-12-06T10:17:28.973Z,17.13
2018-12-06T10:19:56.750Z,14.70
2018-12-06T10:22:24.488Z,14.00
2018-12-06T10:24:52.225Z,12.30
2018-12-06T10:27:19.928Z,12.57
2018-12-06T10:29:47.757Z,17.50
2018-12-06T10:32:15.480Z,15.83
2018-12-06T10:34:43.260Z,18.43
2018-12-06T10:37:11.184Z,18.43
2018-12-06T10:39:38.933Z,14.40
2018-12-06T10:42:06.756Z,14.73
2018-12-06T10:44:34.636Z,15.03
2018-12-06T10:47:02.412Z,17.93
2018-12-06T10:49:30.241Z,17.20
2018-12-06T10:51:58.113Z,18.37
2018-12-06T10:54:25.861Z,15.07
2018-12-06T10:56:53.733Z,18.53
2018-12-06T10:59:22.324Z,13.80
2018-12-06T11:01:55.609Z,15.07
2018-12-06T11:04:27.851Z,17.17
2018-12-06T11:06:55.658Z,10.10
2018-12-06T11:09:23.415Z,15.00
2018-12-06T11:11:51.210Z,17.10
2018-12-06T11:14:19.010Z,17.40
2018-12-06T11:16:46.764Z,15.30
2018-12-06T11:19:14.544Z,15.93
2018-12-06T11:21:42.356Z,15.27
2018-12-06T11:24:10.252Z,16.63
2018-12-06T11:26:38.013Z,16.97
2018-12-06T11:29:05.995Z,13.00
2018-12-06T11:31:33.790Z,18.13
2018-12-06T11:34:01.677Z,17.00
2018-12-06T11:36:29.458Z,16.97
2018-12-06T11:38:57.201Z,14.33
2018-12-06T11:41:25.040Z,12.80
2018-12-06T11:43:52.814Z,15.57
2018-12-06T11:46:20.574Z,15.50
2018-12-06T11:48:48.334Z,17.37
2018-12-06T11:51:16.156Z,14.50
2018-12-06T11:53:43.919Z,13.70
2018-12-06T11:56:11.703Z,11.53
2018-12-06T11:58:39.564Z,6.20
2018-12-06T12:01:07.421Z,8.00
2018-12-06T12:03:35.411Z,8.33
2018-12-06T12:06:03.269Z,11.27
2018-12-06T12:08:31.173Z,8.40
2018-12-06T12:10:58.972Z,13.37
2018-12-06T12:13:26.719Z,10.03
2018-12-06T12:15:54.510Z,9.90
2018-12-06T12:18:22.273Z,11.10
2018-12-06T12:20:50.003Z,8.63
2018-12-06T12:23:17.833Z,9.30
2018-12-06T12:25:45.631Z,9.77
2018-12-06T12:28:13.395Z,9.87
2018-12-06T12:30:41.229Z,11.83
2018-12-06T12:33:09.049Z,9.80
2018-12-06T12:35:36.827Z,11.83
2018-12-06T12:38:04.569Z,7.43
2018-12-06T12:40:32.331Z,11.40
2018-12-06T12:43:00.180Z,12.80
2018-12-06T12:45:27.996Z,11.30
2018-12-06T12:47:55.784Z,14.37
2018-12-06T12:50:24.518Z,11.20
2018-12-06T12:52:52.258Z,11.10
2018-12-06T12:55:20.105Z,12.97
2018-12-06T12:57:47.825Z,8.10
2018-12-06T13:00:15.623Z,12.97
2018-12-06T13:02:43.563Z,9.33
2018-12-06T13:05:12.334Z,11.23
2018-12-06T13:07:40.095Z,10.47
2018-12-06T13:10:07.884Z,10.97
2018-12-06T13:12:35.677Z,10.17
2018-12-06T13:15:03.746Z,12.93
2018-12-06T13:17:31.553Z,8.77
2018-12-06T13:19:59.341Z,8.50
2018-12-06T13:22:27.105Z,12.23
2018-12-06T13:24:54.956Z,11.47
2018-12-06T13:27:22.686Z,11.37
2018-12-06T13:29:50.454Z,9.23
2018-12-06T13:32:18.230Z,11.10
2018-12-06T13:34:46.070Z,13.00
2018-12-06T13:37:14.081Z,8.73
2018-12-06T13:39:41.981Z,10.90
2018-12-06T13:42:09.922Z,9.93
2018-12-06T13:44:37.680Z,10.97
2018-12-06T13:47:05.818Z,11.20
2018-12-06T13:49:33.546Z,10.23
2018-12-06T13:52:01.349Z,10.33
2018-12-06T13:54:29.146Z,8.40
2018-12-06T13:56:56.892Z,9.23
2018-12-06T13:59:24.655Z,9.90
2018-12-06T14:01:52.561Z,10.77
2018-12-06T14:04:20.381Z,9.67
2018-12-06T14:06:48.125Z,7.40
2018-12-06T14:09:15.879Z,10.40
2018-12-06T14:11:43.671Z,10.70
2018-12-06T14:14:11.457Z,9.20
2018-12-06T14:16:39.265Z,7.03
2018-12-06T14:19:07.149Z,10.77
2018-12-06T14:21:34.932Z,10.13
2018-12-06T14:24:02.700Z,9.33
2018-12-06T14:26:30.500Z,9.67
2018-12-06T14:28:58.276Z,7.67
2018-12-06T14:31:26.077Z,9.40
2018-12-06T14:33:53.978Z,9.50
2018-12-06T14:36:21.734Z,8.60
2018-12-06T14:38:49.492Z,7.63
2018-12-06T14:41:17.279Z,8.73
2018-12-06T14:43:45.018Z,9.30
2018-12-06T14:46:12.788Z,8.20
2018-12-06T14:48:40.826Z,9.13
2018-12-06T14:51:08.569Z,8.47
2018-12-06T14:53:36.352Z,7.27
2018-12-06T14:56:04.113Z,7.53
2018-12-06T14:58:31.888Z,7.50
2018-12-06T15:00:59.705Z,9.37
2018-12-06T15:03:27.462Z,9.77
2018-12-06T15:05:55.201Z,10.37
2018-12-06T15:08:22.956Z,8.90
2018-12-06T15:10:50.810Z,9.33
2018-12-06T15:13:18.841Z,10.23
2018-12-06T15:15:46.640Z,8.57
2018-12-06T15:18:14.545Z,8.83
2018-12-06T15:20:42.366Z,8.53
2018-12-06T15:23:10.215Z,10.53
2018-12-06T15:25:41.778Z,9.63
2018-12-06T15:28:07.809Z,9.73
2018-12-06T15:30:35.588Z,8.37
2018-12-06T15:33:03.775Z,8.83
2018-12-06T15:35:31.577Z,9.43
2018-12-06T15:37:59.325Z,9.37
2018-12-06T15:40:27.026Z,8.80
2018-12-06T15:42:54.809Z,8.97
2018-12-06T15:45:22.569Z,8.20
2018-12-06T15:47:50.634Z,9.37
2018-12-06T15:50:18.359Z,7.00
2018-12-06T15:52:46.052Z,7.80
2018-12-06T15:55:13.813Z,8.13
2018-12-06T15:57:41.629Z,7.60
2018-12-06T16:00:12.045Z,8.37
2018-12-06T16:02:39.923Z,9.73
2018-12-06T16:05:07.733Z,7.87
2018-12-06T16:07:35.504Z,9.13
2018-12-06T16:10:03.989Z,8.50
2018-12-06T16:12:31.753Z,9.10
2018-12-06T16:14:59.508Z,8.37
2018-12-06T16:17:27.280Z,7.50
2018-12-06T16:19:55.056Z,8.33
2018-12-06T16:22:22.864Z,9.40
2018-12-06T16:24:50.582Z,7.83
2018-12-06T16:27:18.367Z,9.40
2018-12-06T16:29:51.380Z,7.30
2018-12-06T16:32:16.076Z,8.70
2018-12-06T16:34:43.788Z,8.30
2018-12-06T16:37:11.503Z,6.57
2018-12-06T16:39:39.265Z,6.73
2018-12-06T16:42:07.041Z,6.80
2018-12-06T16:44:34.816Z,7.97
2018-12-06T16:47:02.565Z,7.90
2018-12-06T16:49:30.623Z,7.40
2018-12-06T16:51:58.512Z,9.47
2018-12-06T16:54:26.264Z,10.20
2018-12-06T16:56:54.038Z,8.47
2018-12-06T16:59:21.757Z,9.37
2018-12-06T17:01:49.507Z,9.47
2018-12-06T17:04:17.282Z,10.23
2018-12-06T17:06:45.117Z,9.93
2018-12-06T17:09:12.916Z,9.83
2018-12-06T17:11:40.677Z,8.37
2018-12-06T17:14:08.526Z,9.27
2018-12-06T17:16:36.215Z,10.37
2018-12-06T17:19:04.102Z,8.60
2018-12-06T17:21:31.929Z,10.63
2018-12-06T17:23:59.654Z,8.57
2018-12-06T17:26:27.438Z,10.10
2018-12-06T17:28:55.177Z,10.27
2018-12-06T17:31:22.910Z,9.07
2018-12-06T17:33:50.730Z,10.23
2018-12-06T17:36:18.528Z,8.23
2018-12-06T17:38:46.255Z,9.33
2018-12-06T17:41:13.999Z,10.37
2018-12-06T17:43:41.773Z,9.83
2018-12-06T17:46:09.628Z,12.10
2018-12-06T17:48:37.494Z,11.67
2018-12-06T17:51:05.226Z,12.70
2018-12-06T17:53:33.000Z,12.17
2018-12-06T17:56:01.964Z,11.70
2018-12-06T17:58:29.834Z,12.33
2018-12-06T18:00:57.560Z,11.87
2018-12-06T18:03:25.427Z,14.63
2018-12-06T18:05:53.268Z,15.03
2018-12-06T18:08:21.033Z,11.73
2018-12-06T18:10:49.045Z,15.30
2018-12-06T18:13:16.841Z,16.20
2018-12-06T18:15:45.614Z,13.90
2018-12-06T18:18:13.461Z,14.57
2018-12-06T18:20:42.614Z,15.50
2018-12-06T18:23:10.470Z,15.97
2018-12-06T18:25:38.432Z,15.97
2018-12-06T18:28:06.238Z,15.07
2018-12-06T18:30:34.001Z,10.90
2018-12-06T18:33:01.941Z,14.83
2018-12-06T18:35:29.897Z,12.07
2018-12-06T18:37:57.702Z,11.27
2018-12-06T18:40:25.573Z,14.37
2018-12-06T18:42:53.310Z,14.17
2018-12-06T18:45:21.032Z,14.50
2018-12-06T18:47:48.764Z,10.70
2018-12-06T18:50:16.508Z,14.23
2018-12-06T18:52:44.224Z,12.70
2018-12-06T18:55:12.111Z,13.23
2018-12-06T18:57:39.906Z,14.57
2018-12-06T19:00:09.695Z,12.20
2018-12-06T19:02:37.463Z,14.80
2018-12-06T19:05:05.557Z,12.97
2018-12-06T19:07:33.334Z,12.97
2018-12-06T19:10:01.088Z,12.43
2018-12-06T19:12:28.892Z,11.43
2018-12-06T19:14:56.948Z,13.03
2018-12-06T19:17:24.739Z,14.30
2018-12-06T19:19:52.544Z,12.27
2018-12-06T19:22:20.339Z,13.00
2018-12-06T19:24:48.267Z,14.60
2018-12-06T19:27:16.048Z,12.90
2018-12-06T19:29:43.792Z,13.40
2018-12-06T19:32:11.572Z,13.77
2018-12-06T19:34:39.612Z,13.20
2018-12-06T19:37:07.410Z,15.50
2018-12-06T19:39:35.718Z,15.23
2018-12-06T19:42:03.540Z,13.03
2018-12-06T19:44:31.275Z,14.53
2018-12-06T19:46:59.060Z,13.80
2018-12-06T19:49:27.267Z,14.10
2018-12-06T19:51:55.058Z,11.20
2018-12-06T19:54:22.837Z,15.43
2018-12-06T19:56:50.576Z,14.37
2018-12-06T19:59:18.384Z,15.33
2018-12-06T20:01:46.152Z,12.17
2018-12-06T20:04:13.918Z,13.43
2018-12-06T20:06:42.719Z,14.17
2018-12-06T20:09:10.597Z,10.33
2018-12-06T20:11:38.354Z,10.67
2018-12-06T20:14:06.117Z,10.63
2018-12-06T20:16:33.955Z,12.30
2018-12-06T20:19:01.758Z,10.57
2018-12-06T20:21:29.543Z,10.00
2018-12-06T20:23:57.340Z,10.07
2018-12-06T20:26:25.124Z,9.70
2018-12-06T20:28:52.892Z,9.13
2018-12-06T20:31:21.268Z,8.13
2018-12-06T20:33:49.084Z,7.70
2018-12-06T20:36:16.828Z,8.03
2018-12-06T20:38:44.616Z,7.97
2018-12-06T20:41:12.374Z,7.13
2018-12-06T20:43:40.134Z,7.03
2018-12-06T20:46:07.963Z,6.03
2018-12-06T20:48:35.771Z,5.00
2018-12-06T20:51:03.592Z,4.93
2018-12-06T20:53:31.461Z,4.83
2018-12-06T20:55:59.212Z,8.47
2018-12-06T20:58:26.942Z,8.87
2018-12-06T21:00:54.773Z,6.80
2018-12-06T21:03:22.808Z,7.73
2018-12-06T21:05:50.618Z,6.90
2018-12-06T21:08:18.914Z,7.53
2018-12-06T21:10:46.753Z,7.60
2018-12-06T21:13:14.585Z,7.90
2018-12-06T21:15:42.388Z,7.93
2018-12-06T21:18:10.289Z,8.27
2018-12-06T21:20:38.038Z,5.23
2018-12-06T21:23:06.703Z,7.40
2018-12-06T21:25:34.450Z,7.43
2018-12-06T21:28:02.204Z,8.87
2018-12-06T21:30:29.930Z,7.93
2018-12-06T21:32:57.705Z,7.80
2018-12-06T21:35:26.410Z,7.00
2018-12-06T21:37:54.155Z,6.57
2018-12-06T21:40:21.904Z,6.20
2018-12-06T21:42:49.633Z,7.00
2018-12-06T21:45:17.391Z,7.43
2018-12-06T21:47:45.148Z,7.70
2018-12-06T21:50:12.905Z,6.97
2018-12-06T21:52:40.768Z,6.07
2018-12-06T21:55:08.516Z,8.43
2018-12-06T21:57:36.304Z,7.47
2018-12-06T22:00:04.896Z,6.70
2018-12-06T22:02:33.658Z,7.40
2018-12-06T22:05:01.464Z,7.87
2018-12-06T22:07:29.252Z,6.93
2018-12-06T22:09:56.975Z,8.80
2018-12-06T22:12:24.766Z,7.43
2018-12-06T22:14:52.547Z,6.03
2018-12-06T22:17:20.304Z,6.97
2018-12-06T22:19:48.078Z,6.87
2018-12-06T22:22:15.865Z,8.23
2018-12-06T22:24:43.654Z,6.47
2018-12-06T22:27:11.414Z,5.97
2018-12-06T22:29:39.236Z,6.30
2018-12-06T22:32:07.910Z,5.10
2018-12-06T22:34:35.674Z,5.60
2018-12-06T22:37:03.546Z,5.27
2018-12-06T22:39:31.291Z,5.37
2018-12-06T22:41:59.001Z,4.80
2018-12-06T22:44:26.793Z,4.83
2018-12-06T22:46:54.572Z,4.43
2018-12-06T22:49:22.364Z,4.13
2018-12-06T22:51:50.093Z,4.67
2018-12-06T22:54:17.908Z,5.10
2018-12-06T22:56:46.339Z,4.10
2018-12-06T22:59:14.514Z,4.80
2018-12-06T23:01:42.927Z,3.27
2018-12-06T23:04:10.694Z,3.43
2018-12-06T23:06:38.622Z,4.00
2018-12-06T23:09:09.921Z,3.40
2018-12-06T23:11:38.526Z,5.33
2018-12-06T23:14:06.946Z,4.43
2018-12-06T23:16:34.678Z,4.27
2018-12-06T23:19:03.099Z,5.37
2018-12-06T23:21:30.827Z,4.13
2018-12-06T23:23:58.818Z,5.20
2018-12-06T23:26:26.572Z,5.03
2018-12-06T23:28:54.340Z,4.70
2018-12-06T23:31:22.119Z,4.60
2018-12-06T23:33:49.830Z,4.93
2018-12-06T23:36:17.520Z,4.50
2018-12-06T23:38:45.368Z,3.60
2018-12-06T23:41:13.134Z,4.10
2018-12-06T23:43:40.904Z,4.70
2018-12-06T23:46:08.808Z,2.90
2018-12-06T23:48:36.545Z,3.57
2018-12-06T23:51:15.373Z,4.10
2018-12-06T23:53:43.154Z,3.13
2018-12-06T23:56:10.965Z,3.50
2018-12-06T23:58:38.758Z,3.67
